Time;durP1;ratioP1;P1;durP2;ratioP2;P2;SDS_P1;SDS_P2;PMS_P1;PMS_P2;Temp;Humidity;BMP_temperature;BMP_pressure;BME280_temperature;BME280_humidity;BME280_pressure;Samples;Min_cycle;Max_cycle;Signal;HPM_P1;HPM_P2
2022/08/30 00:02:33;;;;;;;4.38;1.70;;;17.90;99.90;;;;;;6176229;23;20021;-71
2022/08/30 00:05:01;;;;;;;1.98;1.25;;;17.90;99.90;;;;;;6151680;23;20021;-72
2022/08/30 00:07:30;;;;;;;1.48;1.38;;;17.90;99.90;;;;;;6153651;23;20021;-71
2022/08/30 00:09:57;;;;;;;1.33;1.23;;;17.90;99.90;;;;;;6151538;23;20022;-72
2022/08/30 00:12:25;;;;;;;2.42;1.50;;;17.80;99.90;;;;;;6151173;23;20092;-72
2022/08/30 00:14:53;;;;;;;1.92;1.58;;;17.80;99.90;;;;;;6152509;23;20021;-72
2022/08/30 00:17:20;;;;;;;3.28;1.48;;;17.80;99.90;;;;;;6151618;23;20025;-71
2022/08/30 00:19:48;;;;;;;2.10;1.50;;;17.80;99.90;;;;;;6153333;23;20032;-71
2022/08/30 00:22:16;;;;;;;4.03;1.70;;;17.80;99.90;;;;;;6151809;23;20076;-72
2022/08/30 00:24:43;;;;;;;3.72;1.63;;;17.80;99.90;;;;;;6153411;23;20072;-72
2022/08/30 00:27:10;;;;;;;1.77;1.30;;;17.80;99.90;;;;;;6152787;23;20037;-71
2022/08/30 00:29:38;;;;;;;1.42;1.33;;;17.80;99.90;;;;;;6126902;23;20060;-71
2022/08/30 00:32:05;;;;;;;2.20;1.40;;;17.80;99.90;;;;;;6149894;23;20084;-75
2022/08/30 00:34:33;;;;;;;1.17;1.00;;;17.80;99.90;;;;;;6153183;23;20076;-76
2022/08/30 00:37:01;;;;;;;2.33;2.05;;;17.80;99.90;;;;;;6151339;23;20149;-75
2022/08/30 00:39:29;;;;;;;2.47;1.77;;;17.80;99.90;;;;;;6151093;23;20022;-75
2022/08/30 00:41:56;;;;;;;3.60;1.52;;;17.70;99.90;;;;;;6125293;23;20032;-75
2022/08/30 00:44:24;;;;;;;1.27;1.17;;;17.70;99.90;;;;;;6153117;23;20076;-76
2022/08/30 00:46:51;;;;;;;3.28;1.60;;;17.70;99.90;;;;;;6151814;23;20404;-72
2022/08/30 00:49:18;;;;;;;1.90;1.58;;;17.70;99.90;;;;;;6151350;23;20025;-72
2022/08/30 00:51:46;;;;;;;3.13;1.30;;;17.60;99.90;;;;;;6151720;23;20063;-72
2022/08/30 00:54:15;;;;;;;2.78;1.30;;;17.60;99.90;;;;;;6151291;23;20029;-72
2022/08/30 00:56:43;;;;;;;1.67;1.55;;;17.60;99.90;;;;;;6152026;23;20021;-71
2022/08/30 00:59:10;;;;;;;2.28;1.48;;;17.60;99.90;;;;;;6149670;23;20115;-71
2022/08/30 01:01:38;;;;;;;1.70;1.40;;;17.50;99.90;;;;;;6153369;23;20032;-71
2022/08/30 01:04:07;;;;;;;1.60;1.48;;;17.50;99.90;;;;;;6153026;23;20169;-71
2022/08/30 01:06:35;;;;;;;1.83;1.50;;;17.50;99.90;;;;;;6128650;23;20080;-71
2022/08/30 01:09:04;;;;;;;1.75;1.35;;;17.50;99.90;;;;;;6153312;23;20198;-71
2022/08/30 01:11:36;;;;;;;1.45;1.35;;;17.50;99.90;;;;;;6154390;23;20035;-71
2022/08/30 01:14:05;;;;;;;1.60;1.50;;;17.60;99.90;;;;;;6155020;23;20083;-71
2022/08/30 01:16:34;;;;;;;2.35;1.63;;;17.60;99.90;;;;;;6155370;23;20018;-71
2022/08/30 01:19:02;;;;;;;3.03;1.55;;;17.60;99.90;;;;;;6153458;23;20375;-70
2022/08/30 01:21:37;;;;;;;3.08;2.40;;;17.60;99.90;;;;;;6153041;23;20336;-71
2022/08/30 01:24:08;;;;;;;1.70;1.58;;;17.60;99.90;;;;;;6154832;23;20117;-72
2022/08/30 01:26:37;;;;;;;1.90;1.30;;;17.60;99.90;;;;;;6152483;23;20026;-73
2022/08/30 01:29:11;;;;;;;3.47;1.60;;;17.60;99.90;;;;;;6153940;23;20423;-71
2022/08/30 01:31:39;;;;;;;2.33;1.27;;;17.60;99.90;;;;;;6153810;23;20358;-71
2022/08/30 01:34:07;;;;;;;2.28;1.63;;;17.60;99.90;;;;;;6154335;23;20033;-71
2022/08/30 01:36:37;;;;;;;2.78;1.35;;;17.60;99.90;;;;;;6153265;23;20092;-70
2022/08/30 01:39:07;;;;;;;2.85;1.30;;;17.60;99.90;;;;;;6153224;23;20021;-71
2022/08/30 01:41:36;;;;;;;1.80;1.50;;;17.70;99.90;;;;;;6151177;23;20022;-71
2022/08/30 01:44:06;;;;;;;2.30;1.48;;;17.70;99.90;;;;;;6154436;23;20026;-71
2022/08/30 01:46:39;;;;;;;1.65;1.45;;;17.70;99.90;;;;;;6153058;23;20052;-72
2022/08/30 01:49:11;;;;;;;1.50;1.40;;;17.70;99.90;;;;;;6152929;23;20021;-72
2022/08/30 01:51:39;;;;;;;1.73;1.33;;;17.70;99.90;;;;;;6153091;23;20025;-72
2022/08/30 01:54:08;;;;;;;1.77;1.45;;;17.70;99.90;;;;;;6128186;23;20288;-70
2022/08/30 01:56:37;;;;;;;2.80;1.45;;;17.70;99.90;;;;;;6152638;23;20463;-71
2022/08/30 01:59:05;;;;;;;1.85;1.50;;;17.60;99.90;;;;;;6152737;23;20029;-71
2022/08/30 02:01:35;;;;;;;2.22;1.35;;;17.60;99.90;;;;;;6153552;23;20021;-71
2022/08/30 02:04:03;;;;;;;2.58;1.50;;;17.60;99.90;;;;;;6153405;23;20942;-71
2022/08/30 02:06:31;;;;;;;1.52;1.42;;;17.60;99.90;;;;;;6154047;23;20031;-71
2022/08/30 02:08:58;;;;;;;1.98;1.15;;;17.60;99.90;;;;;;6152634;23;20052;-71
2022/08/30 02:11:27;;;;;;;2.47;1.50;;;17.60;99.90;;;;;;6153638;23;20410;-70
2022/08/30 02:13:55;;;;;;;2.25;1.40;;;17.60;99.90;;;;;;6152885;23;20347;-71
2022/08/30 02:16:24;;;;;;;1.30;1.25;;;17.60;99.90;;;;;;6152791;23;20021;-71
2022/08/30 02:18:54;;;;;;;3.67;1.40;;;17.60;99.90;;;;;;6152864;23;20359;-70
2022/08/30 02:21:23;;;;;;;1.40;1.33;;;17.60;99.90;;;;;;6128159;23;20033;-71
2022/08/30 02:23:52;;;;;;;1.17;1.08;;;17.60;99.90;;;;;;6151552;23;20434;-72
2022/08/30 02:26:20;;;;;;;1.20;1.10;;;17.60;99.90;;;;;;6154192;23;20032;-71
2022/08/30 02:28:49;;;;;;;0.98;0.98;;;17.50;99.90;;;;;;6152543;23;20021;-70
2022/08/30 02:31:17;;;;;;;1.42;1.30;;;17.50;99.90;;;;;;6154149;23;20029;-72
2022/08/30 02:33:44;;;;;;;1.60;1.20;;;17.50;99.90;;;;;;6152440;23;20343;-71
2022/08/30 02:36:12;;;;;;;2.92;1.25;;;17.50;99.90;;;;;;6152406;23;20483;-71
2022/08/30 02:38:40;;;;;;;1.52;1.10;;;17.50;99.90;;;;;;6153938;23;20032;-72
2022/08/30 02:41:12;;;;;;;2.85;1.10;;;17.50;99.90;;;;;;6151213;23;20021;-71
2022/08/30 02:43:39;;;;;;;1.00;0.90;;;17.50;99.90;;;;;;6153798;23;20422;-71
2022/08/30 02:46:08;;;;;;;0.85;0.85;;;17.40;99.90;;;;;;6126254;23;20072;-71
2022/08/30 02:48:35;;;;;;;0.77;0.77;;;17.40;99.90;;;;;;6153822;23;20124;-71
2022/08/30 02:51:08;;;;;;;0.82;0.82;;;17.40;99.90;;;;;;6152148;23;20438;-71
2022/08/30 02:53:36;;;;;;;2.05;1.90;;;17.40;99.90;;;;;;6153798;23;20084;-71
2022/08/30 02:56:04;;;;;;;2.72;1.27;;;17.30;99.90;;;;;;6150756;23;20132;-71
2022/08/30 02:58:32;;;;;;;0.85;0.85;;;17.30;99.90;;;;;;6153358;23;20041;-71
2022/08/30 03:01:00;;;;;;;2.88;1.98;;;17.30;99.90;;;;;;6152666;23;20071;-71
2022/08/30 03:03:29;;;;;;;1.17;1.10;;;17.30;99.90;;;;;;6151807;23;20485;-72
2022/08/30 03:05:56;;;;;;;2.42;2.00;;;17.30;99.90;;;;;;6152243;23;20025;-71
2022/08/30 03:08:24;;;;;;;1.77;1.60;;;17.30;99.90;;;;;;6153825;23;20021;-72
2022/08/30 03:10:52;;;;;;;1.50;1.40;;;17.30;99.90;;;;;;6150728;23;20351;-71
2022/08/30 03:13:19;;;;;;;2.47;1.30;;;17.40;99.90;;;;;;6150853;23;20033;-71
2022/08/30 03:15:49;;;;;;;1.42;1.33;;;17.40;99.90;;;;;;6152615;23;20025;-70
2022/08/30 03:18:16;;;;;;;3.00;1.83;;;17.30;99.90;;;;;;6150736;23;20130;-71
2022/08/30 03:20:45;;;;;;;4.45;1.80;;;17.30;99.90;;;;;;6153757;23;20594;-71
2022/08/30 03:23:13;;;;;;;1.50;1.33;;;17.40;99.90;;;;;;6151819;23;20332;-70
2022/08/30 03:25:40;;;;;;;2.33;1.30;;;17.40;99.90;;;;;;6176992;23;20025;-71
2022/08/30 03:28:08;;;;;;;2.10;1.42;;;17.30;99.90;;;;;;6150490;23;20213;-71
2022/08/30 03:30:35;;;;;;;4.45;1.30;;;17.40;99.90;;;;;;6153732;23;20028;-71
2022/08/30 03:33:04;;;;;;;1.52;1.42;;;17.40;99.90;;;;;;6153112;23;20032;-70
2022/08/30 03:35:31;;;;;;;2.35;1.40;;;17.40;99.90;;;;;;6154025;23;20017;-71
2022/08/30 03:38:00;;;;;;;1.73;1.05;;;17.40;99.90;;;;;;6150262;23;20025;-71
2022/08/30 03:40:28;;;;;;;1.63;1.10;;;17.40;99.90;;;;;;6153615;23;20029;-71
2022/08/30 03:42:55;;;;;;;1.30;1.20;;;17.40;99.90;;;;;;6153195;23;20544;-71
2022/08/30 03:45:22;;;;;;;2.53;1.75;;;17.40;99.90;;;;;;6154109;23;20402;-72
2022/08/30 03:47:49;;;;;;;1.98;1.73;;;17.50;99.90;;;;;;6151243;23;20493;-71
2022/08/30 03:50:17;;;;;;;2.33;1.38;;;17.40;99.90;;;;;;6152990;23;20394;-71
2022/08/30 03:52:44;;;;;;;1.55;1.30;;;17.50;99.90;;;;;;6150173;23;20068;-72
2022/08/30 03:55:13;;;;;;;2.65;1.50;;;17.50;99.90;;;;;;6152659;23;20021;-71
2022/08/30 03:57:41;;;;;;;2.65;1.40;;;17.50;99.90;;;;;;6152640;23;20048;-71
2022/08/30 04:00:11;;;;;;;2.10;1.33;;;17.50;99.90;;;;;;6152097;23;20025;-71
2022/08/30 04:02:39;;;;;;;3.33;1.15;;;17.50;99.90;;;;;;6151507;23;20053;-71
2022/08/30 04:05:08;;;;;;;1.90;1.38;;;17.50;99.90;;;;;;6150450;23;20017;-72
2022/08/30 04:07:35;;;;;;;3.22;1.75;;;17.50;99.90;;;;;;6152806;23;20056;-72
2022/08/30 04:10:09;;;;;;;3.90;1.45;;;17.40;99.90;;;;;;6125394;23;20021;-72
2022/08/30 04:12:39;;;;;;;3.67;1.65;;;17.40;99.90;;;;;;6152910;23;20072;-70
2022/08/30 04:15:09;;;;;;;1.83;1.13;;;17.40;99.90;;;;;;6151170;23;20021;-71
2022/08/30 04:17:36;;;;;;;1.88;1.27;;;17.40;99.90;;;;;;6151672;23;20021;-71
2022/08/30 04:20:05;;;;;;;10.85;1.45;;;17.40;99.90;;;;;;6151945;23;20044;-71
2022/08/30 04:22:35;;;;;;;5.45;1.50;;;17.40;99.90;;;;;;6152734;23;20025;-71
2022/08/30 04:25:03;;;;;;;3.85;1.13;;;17.40;99.90;;;;;;6151713;23;20168;-71
2022/08/30 04:27:31;;;;;;;1.75;1.13;;;17.40;99.90;;;;;;6150227;23;20022;-71
2022/08/30 04:30:01;;;;;;;1.63;1.00;;;17.30;99.90;;;;;;6151565;23;20033;-71
2022/08/30 04:32:30;;;;;;;2.78;1.00;;;17.30;99.90;;;;;;6125521;23;20029;-70
2022/08/30 04:34:58;;;;;;;2.83;1.63;;;17.30;99.90;;;;;;6153062;23;20021;-71
2022/08/30 04:37:26;;;;;;;3.17;1.15;;;17.30;99.90;;;;;;6149699;23;20109;-71
2022/08/30 04:39:56;;;;;;;4.10;1.70;;;17.30;99.90;;;;;;6127112;23;20169;-71
2022/08/30 04:42:24;;;;;;;2.65;1.17;;;17.30;99.90;;;;;;6150994;23;20025;-70
2022/08/30 04:44:51;;;;;;;6.25;1.30;;;17.20;99.90;;;;;;6151410;23;20028;-72
2022/08/30 04:47:20;;;;;;;3.20;1.20;;;17.20;99.90;;;;;;6152963;23;20025;-71
2022/08/30 04:49:47;;;;;;;7.53;1.42;;;17.20;99.90;;;;;;6151375;23;20474;-71
2022/08/30 04:52:14;;;;;;;3.65;1.58;;;17.10;99.90;;;;;;6124697;23;20053;-71
2022/08/30 04:54:43;;;;;;;4.55;1.10;;;17.10;99.90;;;;;;6152992;23;20021;-71
2022/08/30 04:57:12;;;;;;;4.53;1.20;;;17.10;99.90;;;;;;6151444;23;20048;-71
2022/08/30 04:59:39;;;;;;;1.55;1.00;;;17.10;99.90;;;;;;6153269;23;20454;-71
2022/08/30 05:02:07;;;;;;;2.97;0.95;;;17.00;99.90;;;;;;6125407;23;20371;-74
2022/08/30 05:05:38;;;;;;;2.15;1.10;;;17.10;99.90;;;;;;6153386;23;20022;-74
2022/08/30 05:07:24;;;;;;;5.57;1.23;;;17.10;99.90;;;;;;6151298;23;20025;-75
2022/08/30 05:09:52;;;;;;;3.00;1.90;;;17.10;99.90;;;;;;6151659;23;20026;-73
2022/08/30 05:12:19;;;;;;;2.67;1.50;;;17.10;99.90;;;;;;6152980;23;20033;-74
2022/08/30 05:14:47;;;;;;;5.40;1.77;;;17.10;99.90;;;;;;6149165;23;20365;-75
2022/08/30 05:17:14;;;;;;;1.85;1.02;;;17.10;99.90;;;;;;6151148;23;20141;-75
2022/08/30 05:19:43;;;;;;;33.38;4.97;;;17.10;99.90;;;;;;6151407;23;20022;-75
2022/08/30 05:22:11;;;;;;;9.35;3.30;;;17.10;99.90;;;;;;6151584;23;20060;-75
2022/08/30 05:24:38;;;;;;;2.42;1.40;;;17.10;99.90;;;;;;6151178;23;20021;-75
2022/08/30 05:27:06;;;;;;;3.65;1.30;;;17.10;99.90;;;;;;6153104;23;20017;-71
2022/08/30 05:29:33;;;;;;;2.35;1.02;;;17.10;99.90;;;;;;6150712;23;20026;-71
2022/08/30 05:32:01;;;;;;;3.80;1.10;;;17.10;99.90;;;;;;6152164;23;20349;-71
2022/08/30 05:34:31;;;;;;;3.00;0.98;;;17.10;99.90;;;;;;6150280;23;20045;-71
2022/08/30 05:37:01;;;;;;;4.38;1.38;;;17.10;99.90;;;;;;6150800;23;20017;-72
2022/08/30 05:39:30;;;;;;;3.30;1.80;;;17.10;99.90;;;;;;6151113;23;20420;-74
2022/08/30 05:41:58;;;;;;;7.03;3.08;;;17.10;99.90;;;;;;6151091;23;20017;-72
2022/08/30 05:44:27;;;;;;;6.55;2.83;;;17.10;99.90;;;;;;6149679;23;20485;-70
2022/08/30 05:46:54;;;;;;;10.00;3.72;;;17.10;99.90;;;;;;6150596;23;20054;-74
2022/08/30 05:49:22;;;;;;;13.35;3.72;;;17.10;99.90;;;;;;6152834;23;20084;-74
2022/08/30 05:51:50;;;;;;;8.25;4.00;;;17.20;99.90;;;;;;6152090;23;20049;-78
2022/08/30 05:54:19;;;;;;;8.25;3.42;;;17.20;99.90;;;;;;6152025;23;20522;-77
2022/08/30 05:56:47;;;;;;;5.25;2.97;;;17.20;99.90;;;;;;6150033;23;20104;-78
2022/08/30 05:59:16;;;;;;;5.03;2.85;;;17.30;99.90;;;;;;6152122;23;20108;-77
2022/08/30 06:01:48;;;;;;;5.88;3.08;;;17.30;99.90;;;;;;6151869;23;20045;-77
2022/08/30 06:04:18;;;;;;;7.20;3.25;;;17.40;99.90;;;;;;6151141;23;20359;-77
2022/08/30 06:07:08;;;;;;;5.70;2.72;;;17.40;99.90;;;;;;6152327;23;20382;-78
2022/08/30 06:09:38;;;;;;;6.78;3.75;;;17.40;99.90;;;;;;6154615;23;20021;-78
2022/08/30 06:12:07;;;;;;;5.05;2.25;;;17.40;99.90;;;;;;6152251;23;20030;-76
2022/08/30 06:14:39;;;;;;;6.20;4.72;;;17.40;99.90;;;;;;6150742;23;20025;-78
2022/08/30 06:17:11;;;;;;;3.20;2.90;;;17.40;99.90;;;;;;6152689;23;20064;-79
2022/08/30 06:19:38;;;;;;;6.10;3.33;;;17.40;99.90;;;;;;6151975;23;20317;-72
2022/08/30 06:22:11;;;;;;;10.90;3.60;;;17.40;99.90;;;;;;6153674;23;20355;-71
2022/08/30 06:27:24;;;;;;;7.13;4.95;;;17.40;99.90;;;;;;6151440;23;19932;-77
2022/08/30 06:29:53;;;;;;;10.23;3.55;;;17.50;99.90;;;;;;6151613;23;20367;-78
2022/08/30 06:32:21;;;;;;;11.48;4.00;;;17.40;99.90;;;;;;6154063;23;20056;-77
2022/08/30 06:34:49;;;;;;;5.82;2.30;;;17.40;99.90;;;;;;6149500;23;20104;-71
2022/08/30 06:37:17;;;;;;;5.90;3.58;;;17.40;99.90;;;;;;6174808;23;20021;-72
2022/08/30 06:39:48;;;;;;;6.70;2.13;;;17.50;99.90;;;;;;6151086;23;20108;-79
2022/08/30 06:42:17;;;;;;;8.70;2.67;;;17.50;99.90;;;;;;6151843;23;20045;-71
2022/08/30 06:44:45;;;;;;;3.03;2.47;;;17.50;99.90;;;;;;6151917;23;20021;-72
2022/08/30 06:47:12;;;;;;;7.03;2.40;;;17.50;99.90;;;;;;6151348;23;20022;-72
2022/08/30 06:49:40;;;;;;;4.40;2.63;;;17.50;99.90;;;;;;6152937;23;20017;-71
2022/08/30 06:52:07;;;;;;;3.15;2.33;;;17.50;99.90;;;;;;6149610;23;20383;-73
2022/08/30 06:54:35;;;;;;;2.60;2.05;;;17.50;99.90;;;;;;6151820;23;20079;-72
2022/08/30 06:57:04;;;;;;;2.30;2.03;;;17.50;99.90;;;;;;6146424;23;20030;-73
2022/08/30 06:59:36;;;;;;;8.25;2.05;;;17.50;99.90;;;;;;6151586;23;20025;-73
2022/08/30 07:02:08;;;;;;;2.28;1.73;;;17.50;99.90;;;;;;6152470;23;20021;-72
2022/08/30 07:04:37;;;;;;;1.60;1.50;;;17.50;99.90;;;;;;6151374;23;20048;-73
2022/08/30 07:07:05;;;;;;;3.33;1.50;;;17.50;99.90;;;;;;6150213;23;20021;-74
2022/08/30 07:09:34;;;;;;;4.18;1.67;;;17.60;99.90;;;;;;6149643;23;20454;-73
2022/08/30 07:12:05;;;;;;;3.53;2.10;;;17.60;99.90;;;;;;6149042;23;20024;-73
2022/08/30 07:14:32;;;;;;;5.35;1.40;;;17.60;99.90;;;;;;6152895;23;20033;-74
2022/08/30 07:17:00;;;;;;;5.05;1.45;;;17.60;99.90;;;;;;6151499;23;20100;-75
2022/08/30 07:19:34;;;;;;;6.00;1.70;;;17.60;99.90;;;;;;6150255;23;20067;-74
2022/08/30 07:22:04;;;;;;;6.53;1.58;;;17.60;99.90;;;;;;6126564;23;20056;-74
2022/08/30 07:24:32;;;;;;;2.60;1.42;;;17.70;99.90;;;;;;6152531;23;20029;-74
2022/08/30 07:27:00;;;;;;;3.40;1.77;;;17.70;99.90;;;;;;6150354;23;20054;-75
2022/08/30 07:29:29;;;;;;;4.53;1.65;;;17.70;99.90;;;;;;6149534;23;20116;-74
2022/08/30 07:31:56;;;;;;;2.35;1.70;;;17.80;99.90;;;;;;6149599;23;20087;-75
2022/08/30 07:34:24;;;;;;;1.63;1.52;;;17.80;99.90;;;;;;6148521;23;20051;-75
2022/08/30 07:36:51;;;;;;;5.70;1.52;;;17.90;99.90;;;;;;6150238;23;20104;-75
2022/08/30 07:39:19;;;;;;;4.40;2.15;;;17.80;99.90;;;;;;6172306;23;20051;-75
2022/08/30 07:41:47;;;;;;;3.65;1.70;;;17.80;99.90;;;;;;6149841;23;20032;-74
2022/08/30 07:44:15;;;;;;;2.97;1.92;;;17.80;99.90;;;;;;6150520;23;20043;-73
2022/08/30 07:46:44;;;;;;;3.05;1.98;;;17.80;99.90;;;;;;6150507;23;20026;-76
2022/08/30 07:49:11;;;;;;;7.60;1.83;;;17.80;99.90;;;;;;6150211;23;20037;-74
2022/08/30 07:51:40;;;;;;;3.70;2.08;;;17.80;99.90;;;;;;6150553;23;20459;-75
2022/08/30 07:54:08;;;;;;;4.40;1.90;;;17.80;99.90;;;;;;6148670;23;20553;-74
2022/08/30 07:56:36;;;;;;;5.88;2.08;;;17.80;99.90;;;;;;6149244;23;20477;-74
2022/08/30 07:59:03;;;;;;;4.68;2.10;;;17.80;99.90;;;;;;6150645;23;20034;-75
2022/08/30 08:01:31;;;;;;;2.08;1.50;;;17.80;99.90;;;;;;6149066;23;20458;-73
2022/08/30 08:04:00;;;;;;;7.88;2.58;;;17.80;99.90;;;;;;6151377;23;20476;-75
2022/08/30 08:06:27;;;;;;;8.80;2.50;;;17.80;99.90;;;;;;6152113;23;20632;-75
2022/08/30 08:09:00;;;;;;;17.30;2.65;;;17.70;99.90;;;;;;6150393;23;20022;-77
2022/08/30 08:11:30;;;;;;;6.53;2.22;;;17.70;99.90;;;;;;6149090;23;20017;-75
2022/08/30 08:13:57;;;;;;;32.50;2.78;;;17.60;99.90;;;;;;6151599;23;20075;-75
2022/08/30 08:16:27;;;;;;;57.70;6.30;;;17.70;99.90;;;;;;6150893;23;20411;-74
2022/08/30 08:18:56;;;;;;;11.18;2.55;;;17.70;99.90;;;;;;6148562;23;20022;-74
2022/08/30 08:21:26;;;;;;;45.75;5.10;;;17.70;99.90;;;;;;6150169;23;20025;-75
2022/08/30 08:23:54;;;;;;;155.60;10.52;;;17.80;99.90;;;;;;6151631;23;20021;-72
2022/08/30 08:26:22;;;;;;;6.90;1.85;;;17.80;99.90;;;;;;6151738;23;20083;-74
2022/08/30 08:28:50;;;;;;;4.63;1.38;;;17.90;99.90;;;;;;6150556;23;20017;-74
2022/08/30 08:31:21;;;;;;;5.20;1.65;;;17.90;99.90;;;;;;6100462;23;20021;-74
2022/08/30 08:33:49;;;;;;;4.35;1.90;;;17.90;99.90;;;;;;6150510;23;20025;-75
2022/08/30 08:36:17;;;;;;;2.85;1.58;;;17.90;99.90;;;;;;6149844;23;20048;-76
2022/08/30 08:38:46;;;;;;;3.35;1.70;;;18.00;99.90;;;;;;6151214;23;20017;-78
2022/08/30 08:41:35;;;;;;;2.80;1.33;;;18.00;99.90;;;;;;6151053;23;20029;-80
2022/08/30 08:44:09;;;;;;;2.58;1.48;;;18.00;99.90;;;;;;6149550;23;20029;-80
2022/08/30 08:46:46;;;;;;;5.80;1.42;;;18.00;99.90;;;;;;6150601;23;20022;-75
2022/08/30 08:49:14;;;;;;;6.57;1.88;;;18.00;99.90;;;;;;6150823;23;20134;-76
2022/08/30 08:54:37;;;;;;;18.00;2.45;;;18.10;99.90;;;;;;6174636;23;20080;-76
2022/08/30 08:57:07;;;;;;;15.73;2.50;;;18.10;99.90;;;;;;6149966;23;20113;-75
2022/08/30 08:59:35;;;;;;;33.92;4.57;;;18.00;99.90;;;;;;6174051;23;20029;-75
2022/08/30 09:02:24;;;;;;;9.50;1.77;;;17.90;99.90;;;;;;6149662;23;20029;-75
2022/08/30 09:04:55;;;;;;;3.95;1.38;;;17.80;99.90;;;;;;6151996;23;20033;-78
2022/08/30 09:07:25;;;;;;;7.70;1.45;;;17.80;99.90;;;;;;6152590;23;20021;-78
2022/08/30 09:09:54;;;;;;;3.75;1.55;;;17.80;99.90;;;;;;6150456;23;20025;-80
2022/08/30 09:12:22;;;;;;;8.57;1.15;;;17.80;99.90;;;;;;6152112;23;20025;-79
2022/08/30 09:14:56;;;;;;;6.18;1.83;;;17.80;99.90;;;;;;6152219;23;20447;-80
2022/08/30 09:17:23;;;;;;;1.35;1.17;;;17.80;99.90;;;;;;6149465;23;20021;-78
2022/08/30 09:19:59;;;;;;;4.55;1.13;;;17.80;99.90;;;;;;6152502;23;20180;-83
2022/08/30 09:22:33;;;;;;;15.05;1.63;;;17.80;99.90;;;;;;6153012;23;20129;-80
2022/08/30 09:25:06;;;;;;;6.68;2.03;;;17.70;99.90;;;;;;6153950;23;20022;-80
2022/08/30 09:27:37;;;;;;;10.82;1.70;;;17.70;99.90;;;;;;6153297;23;20026;-77
2022/08/30 09:30:10;;;;;;;4.15;1.23;;;17.60;99.90;;;;;;6151464;23;20060;-72
2022/08/30 09:32:41;;;;;;;3.45;1.60;;;17.60;99.90;;;;;;6153164;23;20021;-73
2022/08/30 09:35:12;;;;;;;3.33;1.42;;;17.60;99.90;;;;;;6154144;23;20048;-73
2022/08/30 09:37:48;;;;;;;2.25;1.20;;;17.70;99.90;;;;;;6152499;23;20466;-73
2022/08/30 09:40:28;;;;;;;5.75;1.55;;;17.70;99.90;;;;;;6153698;23;20075;-74
2022/08/30 09:43:04;;;;;;;3.20;1.25;;;17.80;99.90;;;;;;6153118;23;20029;-73
2022/08/30 09:45:39;;;;;;;4.40;1.55;;;17.80;99.90;;;;;;6154265;23;20025;-72
2022/08/30 09:48:39;;;;;;;2.65;1.08;;;17.80;99.90;;;;;;6151250;23;20021;-74
2022/08/30 09:51:44;;;;;;;0.85;0.82;;;17.90;99.90;;;;;;6062823;23;20026;-73
2022/08/30 09:54:19;;;;;;;2.13;1.08;;;18.00;99.90;;;;;;6153035;23;20029;-71
2022/08/30 09:57:03;;;;;;;1.00;0.80;;;18.00;99.90;;;;;;6152943;23;20026;-71
2022/08/30 09:59:48;;;;;;;2.40;1.33;;;18.10;99.90;;;;;;6153462;23;20023;-70
2022/08/30 10:02:43;;;;;;;2.80;1.30;;;18.10;99.90;;;;;;6152281;23;20041;-72
2022/08/30 10:05:20;;;;;;;3.13;1.13;;;18.10;99.90;;;;;;6151490;23;20451;-75
2022/08/30 10:07:57;;;;;;;2.65;1.15;;;18.10;99.90;;;;;;6152179;23;20080;-81
2022/08/30 10:10:34;;;;;;;4.25;1.30;;;18.10;99.90;;;;;;6152312;23;20025;-79
2022/08/30 10:13:28;;;;;;;3.78;1.10;;;18.10;99.90;;;;;;6152035;23;20514;-73
2022/08/30 10:16:04;;;;;;;5.07;1.13;;;18.10;99.90;;;;;;6152364;23;20022;-75
2022/08/30 10:18:40;;;;;;;3.78;1.48;;;18.00;99.90;;;;;;6152910;23;20096;-74
2022/08/30 10:21:21;;;;;;;2.58;1.80;;;17.90;99.90;;;;;;6152345;23;20022;-74
2022/08/30 10:23:53;;;;;;;3.30;1.40;;;17.90;99.90;;;;;;6151408;23;20100;-81
2022/08/30 10:26:32;;;;;;;5.25;0.90;;;17.90;99.90;;;;;;6153949;23;20406;-81
2022/08/30 10:29:08;;;;;;;2.33;1.00;;;17.90;99.90;;;;;;6154069;23;20027;-77
2022/08/30 10:31:43;;;;;;;8.65;1.85;;;17.90;99.90;;;;;;6151013;23;20025;-77
2022/08/30 10:34:20;;;;;;;5.30;1.25;;;18.00;99.90;;;;;;6150228;23;20451;-76
2022/08/30 10:36:54;;;;;;;12.10;1.63;;;18.00;99.90;;;;;;6152580;23;20498;-74
2022/08/30 10:39:28;;;;;;;7.05;1.15;;;18.10;99.90;;;;;;6153251;23;20474;-83
2022/08/30 10:42:06;;;;;;;4.97;1.05;;;18.10;99.90;;;;;;6153565;23;20032;-83
2022/08/30 10:44:44;;;;;;;6.90;4.22;;;18.00;99.90;;;;;;6155268;23;20072;-84
2022/08/30 10:47:26;;;;;;;4.38;1.15;;;18.00;99.90;;;;;;6152521;23;20028;-76
2022/08/30 10:50:06;;;;;;;14.18;1.60;;;18.00;99.90;;;;;;6125361;23;20084;-75
2022/08/30 10:52:41;;;;;;;4.90;0.95;;;17.90;99.90;;;;;;6152389;23;20048;-74
2022/08/30 10:55:15;;;;;;;2.28;0.70;;;18.00;99.90;;;;;;6152511;23;20438;-75
2022/08/30 10:57:44;;;;;;;2.92;0.90;;;18.00;99.90;;;;;;6152586;23;20025;-83
2022/08/30 11:00:16;;;;;;;5.82;1.48;;;18.00;99.90;;;;;;6152582;23;20367;-84
2022/08/30 11:03:24;;;;;;;;;;;18.00;99.90;;;;;;6128245;23;20068;-83
2022/08/30 11:06:16;;;;;;;8.05;1.00;;;18.10;99.90;;;;;;6153166;23;19951;-82
2022/08/30 11:09:21;;;;;;;1.98;0.70;;;18.10;99.90;;;;;;6149295;23;20457;-82
2022/08/30 11:12:17;;;;;;;6.20;1.48;;;18.20;99.90;;;;;;6122944;23;20347;-75
2022/08/30 11:14:46;;;;;;;4.25;1.00;;;18.30;99.90;;;;;;6151721;23;20363;-74
2022/08/30 11:17:27;;;;;;;1.35;0.95;;;18.30;99.90;;;;;;6151876;23;20029;-77
2022/08/30 11:19:57;;;;;;;1.10;0.85;;;18.30;99.90;;;;;;6152113;23;20484;-75
2022/08/30 11:22:29;;;;;;;5.72;1.27;;;18.30;99.90;;;;;;6151152;23;20024;-76
2022/08/30 11:25:11;;;;;;;4.20;1.10;;;18.30;99.90;;;;;;6151110;23;20031;-76
2022/08/30 11:27:52;;;;;;;10.23;1.23;;;18.30;99.90;;;;;;6150268;23;20025;-77
2022/08/30 11:30:52;;;;;;;3.03;0.98;;;18.20;99.90;;;;;;6149908;23;20084;-77
2022/08/30 11:33:44;;;;;;;2.22;1.23;;;18.20;99.90;;;;;;6150596;23;20021;-76
2022/08/30 11:36:56;;;;;;;2.50;0.80;;;18.10;99.90;;;;;;6152240;23;20022;-77
2022/08/30 11:39:56;;;;;;;6.18;1.15;;;18.10;99.90;;;;;;6130183;23;20021;-76
2022/08/30 11:42:35;;;;;;;3.10;1.00;;;18.10;99.90;;;;;;6151633;23;20045;-76
2022/08/30 11:45:43;;;;;;;5.03;0.95;;;18.10;99.90;;;;;;6151581;23;20044;-80
2022/08/30 11:48:47;;;;;;;4.70;1.15;;;18.00;99.90;;;;;;6150925;23;20462;-79
2022/08/30 11:51:53;;;;;;;4.22;1.00;;;18.00;99.90;;;;;;6151950;23;20025;-77
2022/08/30 11:54:35;;;;;;;10.70;2.95;;;17.90;99.90;;;;;;6151789;23;20603;-76
2022/08/30 11:57:17;;;;;;;2.75;0.93;;;17.90;99.90;;;;;;6152332;23;20045;-76
2022/08/30 11:59:58;;;;;;;3.58;1.00;;;17.90;99.90;;;;;;6152649;23;20048;-76
2022/08/30 12:02:51;;;;;;;6.15;2.25;;;17.90;99.90;;;;;;6152715;23;20112;-75
2022/08/30 12:06:07;;;;;;;4.45;0.90;;;17.80;99.90;;;;;;6151095;23;20032;-74
2022/08/30 12:08:54;;;;;;;4.38;1.38;;;17.80;99.90;;;;;;6128719;23;20028;-75
2022/08/30 12:12:02;;;;;;;3.95;1.05;;;17.70;99.90;;;;;;6151888;23;20026;-76
2022/08/30 12:14:50;;;;;;;3.58;1.35;;;17.70;99.90;;;;;;6150200;23;20473;-74
2022/08/30 12:20:24;;;;;;;4.18;1.40;;;17.80;99.90;;;;;;6173300;23;20081;-75
2022/08/30 12:22:54;;;;;;;3.42;0.70;;;17.80;99.90;;;;;;6151022;23;20120;-74
2022/08/30 12:25:30;;;;;;;2.88;0.93;;;17.90;99.90;;;;;;6152999;23;20029;-73
2022/08/30 12:28:15;;;;;;;3.20;0.90;;;18.00;99.90;;;;;;6150967;23;20021;-73
2022/08/30 12:30:45;;;;;;;5.38;1.15;;;18.00;99.90;;;;;;6151462;23;20359;-74
2022/08/30 12:33:34;;;;;;;2.38;0.95;;;17.90;99.90;;;;;;6149059;23;20029;-75
2022/08/30 12:36:05;;;;;;;1.45;0.77;;;17.90;99.90;;;;;;6151692;23;20638;-74
2022/08/30 12:39:13;;;;;;;3.15;1.20;;;17.90;99.90;;;;;;6125499;23;20529;-74
2022/08/30 12:41:47;;;;;;;4.80;0.90;;;17.90;99.90;;;;;;6145913;23;20026;-74
2022/08/30 12:44:22;;;;;;;1.63;0.75;;;17.80;99.90;;;;;;6151559;23;20462;-73
2022/08/30 12:46:56;;;;;;;3.03;0.80;;;17.80;99.90;;;;;;6149115;23;20048;-71
2022/08/30 12:49:26;;;;;;;6.20;0.85;;;17.80;99.90;;;;;;6151629;23;20025;-72
2022/08/30 12:51:55;;;;;;;1.17;0.90;;;17.70;99.90;;;;;;6151905;23;20030;-75
2022/08/30 12:54:28;;;;;;;8.82;1.17;;;17.60;99.90;;;;;;6151641;23;20029;-73
2022/08/30 12:57:01;;;;;;;8.73;1.60;;;17.60;99.90;;;;;;6151309;23;20027;-74
2022/08/30 12:59:45;;;;;;;5.93;1.25;;;17.60;99.90;;;;;;6151420;23;20471;-73
2022/08/30 13:02:17;;;;;;;3.47;0.80;;;17.50;99.90;;;;;;6151107;23;20501;-74
2022/08/30 13:04:47;;;;;;;4.22;0.80;;;17.50;99.90;;;;;;6151505;23;20026;-73
2022/08/30 13:07:35;;;;;;;5.65;0.77;;;17.50;99.90;;;;;;6151528;23;20116;-73
2022/08/30 13:10:18;;;;;;;5.07;1.05;;;17.40;99.90;;;;;;6152014;23;20490;-75
2022/08/30 13:13:00;;;;;;;;;;;17.40;99.90;;;;;;6151600;23;20072;-72
2022/08/30 13:15:32;;;;;;;4.07;1.20;;;17.40;99.90;;;;;;6151872;23;19928;-73
2022/08/30 13:18:19;;;;;;;5.77;1.17;;;17.40;99.90;;;;;;6151848;23;20021;-72
2022/08/30 13:20:47;;;;;;;10.43;1.40;;;17.30;99.90;;;;;;6151109;23;20017;-73
2022/08/30 13:23:23;;;;;;;9.90;1.98;;;17.20;99.90;;;;;;6150552;23;20026;-72